Time;durP1;ratioP1;P1;durP2;ratioP2;P2;SDS_P1;SDS_P2;PMS_P1;PMS_P2;Temp;Humidity;BMP_temperature;BMP_pressure;BME280_temperature;BME280_humidity;BME280_pressure;Samples;Min_cycle;Max_cycle;Signal;HPM_P1;HPM_P2
2023/10/19 07:23:53;;;;;;;10.23;4.53;;;;;;;-145.79;100.00;75893.81;5326623;27;20391;-72
2023/10/19 07:26:31;;;;;;;8.77;3.45;;;;;;;-145.79;100.00;75889.56;5328347;28;20086;-72
2023/10/19 07:29:02;;;;;;;5.97;3.47;;;;;;;-145.79;100.00;75885.34;5334958;28;20374;-72
2023/10/19 07:31:34;;;;;;;6.65;4.13;;;;;;;-145.79;100.00;75876.84;5332296;28;20042;-72
2023/10/19 07:34:08;;;;;;;7.60;3.20;;;;;;;-145.79;100.00;75866.25;5330073;28;20038;-72
2023/10/19 07:36:39;;;;;;;8.63;2.80;;;;;;;-145.79;100.00;75864.16;5331633;28;20056;-72
2023/10/19 07:39:19;;;;;;;8.55;2.92;;;;;;;-145.79;100.00;75859.91;5333641;28;20050;-72
2023/10/19 07:41:50;;;;;;;12.05;3.75;;;;;;;-145.79;100.00;75853.56;5328989;28;20369;-72
2023/10/19 07:44:22;;;;;;;8.60;3.72;;;;;;;-145.79;100.00;75849.31;5321910;28;20022;-72
2023/10/19 07:46:53;;;;;;;9.27;3.33;;;;;;;-145.79;100.00;75838.72;5331766;28;20025;-72
2023/10/19 07:49:25;;;;;;;6.47;2.55;;;;;;;-145.79;100.00;75838.72;5330134;28;20099;-72
2023/10/19 07:51:57;;;;;;;8.32;3.35;;;;;;;-145.79;100.00;75832.34;5338395;28;20058;-71
2023/10/19 07:54:29;;;;;;;7.63;2.67;;;;;;;-145.79;100.00;75828.13;5329838;28;20098;-72
2023/10/19 07:57:05;;;;;;;7.22;2.80;;;;;;;-145.79;100.00;75821.75;5331713;28;20386;-72
2023/10/19 07:59:37;;;;;;;7.22;2.80;;;;;;;-145.79;100.00;75813.28;5320230;28;20111;-72
2023/10/19 08:02:08;;;;;;;9.00;2.20;;;;;;;-145.79;100.00;75813.28;5321896;28;20098;-68
2023/10/19 08:04:39;;;;;;;4.45;2.25;;;;;;;-145.79;100.00;75813.28;5320667;28;20028;-68
2023/10/19 08:07:11;;;;;;;5.03;2.15;;;;;;;-145.79;100.00;75804.81;5324690;28;20106;-67
2023/10/19 08:09:42;;;;;;;5.13;2.38;;;;;;;-145.79;100.00;75796.34;5327800;28;20430;-66
2023/10/19 08:12:14;;;;;;;6.95;2.97;;;;;;;-145.79;100.00;75794.22;5329534;28;20132;-71
2023/10/19 08:14:46;;;;;;;4.38;2.10;;;;;;;-145.79;100.00;75798.47;5322820;28;20028;-71
2023/10/19 08:17:17;;;;;;;8.52;2.75;;;;;;;-145.79;100.00;75781.50;5326418;28;20080;-71
2023/10/19 08:19:50;;;;;;;7.80;2.90;;;;;;;-145.79;100.00;75775.16;5329368;28;20024;-72
2023/10/19 08:22:21;;;;;;;9.60;2.97;;;;;;;-145.79;100.00;75773.03;5314646;28;20044;-72
2023/10/19 08:24:53;;;;;;;9.13;3.38;;;;;;;-145.79;100.00;75773.03;5316080;28;20034;-71
2023/10/19 08:27:26;;;;;;;5.00;2.67;;;;;;;-145.79;100.00;75766.69;5312277;28;20111;-72
2023/10/19 08:29:57;;;;;;;6.45;2.60;;;;;;;-145.79;100.00;75758.19;5326149;28;20087;-72
2023/10/19 08:32:28;;;;;;;5.95;2.70;;;;;;;-145.79;100.00;75762.44;5322765;28;20105;-72
2023/10/19 08:35:00;;;;;;;9.15;3.15;;;;;;;-145.79;100.00;75753.97;5312891;28;20027;-72
2023/10/19 08:37:32;;;;;;;7.55;2.63;;;;;;;-145.79;100.00;75753.97;5300433;28;20031;-72
2023/10/19 08:40:06;;;;;;;5.50;2.45;;;;;;;-145.79;100.00;75758.19;5298085;28;20028;-73
2023/10/19 08:42:37;;;;;;;9.65;3.03;;;;;;;-145.79;100.00;75749.72;5297344;28;20573;-71
2023/10/19 08:45:12;;;;;;;6.65;3.47;;;;;;;-145.79;100.00;75741.25;5304918;28;20036;-72
2023/10/19 08:47:56;;;;;;;5.30;2.90;;;;;;;-145.79;100.00;75732.78;5308581;28;20051;-72
2023/10/19 08:50:34;;;;;;;6.57;2.63;;;;;;;-145.79;100.00;75728.53;5308799;28;20046;-72
2023/10/19 08:53:08;;;;;;;15.27;4.53;;;;;;;-145.79;100.00;75720.06;5293426;28;20043;-72
2023/10/19 08:55:39;;;;;;;10.10;2.88;;;;;;;-145.79;100.00;75722.19;5298496;28;20032;-71
2023/10/19 08:58:11;;;;;;;7.95;3.10;;;;;;;-145.79;100.00;75715.81;5314994;28;20020;-70
2023/10/19 09:00:48;;;;;;;8.05;2.50;;;;;;;-145.79;100.00;75707.34;5314251;28;20020;-69
2023/10/19 09:03:21;;;;;;;9.05;2.88;;;;;;;-145.79;100.00;75696.75;5319149;28;20024;-69
2023/10/19 09:05:53;;;;;;;7.93;3.85;;;;;;;-145.79;100.00;75686.16;5302757;28;20036;-69
2023/10/19 09:08:25;;;;;;;9.80;3.08;;;;;;;-145.79;100.00;75675.56;5316192;28;20508;-70
2023/10/19 09:10:56;;;;;;;7.40;2.33;;;;;;;-145.79;100.00;75660.75;5311882;28;20024;-68
2023/10/19 09:13:44;;;;;;;5.95;2.70;;;;;;;-145.79;100.00;75648.03;5317606;28;20063;-70
2023/10/19 09:16:22;;;;;;;6.68;2.47;;;;;;;-145.79;100.00;75637.44;5311994;28;20028;-68
2023/10/19 09:18:53;;;;;;;7.72;2.40;;;;;;;-145.79;100.00;75637.44;5307581;28;20051;-71
2023/10/19 09:21:25;;;;;;;6.90;2.30;;;;;;;-145.79;100.00;75626.84;5301301;28;20021;-68
2023/10/19 09:23:57;;;;;;;8.15;2.67;;;;;;;-145.79;100.00;75635.31;5303586;28;20020;-69
2023/10/19 09:26:30;;;;;;;5.85;2.30;;;;;;;-145.79;100.00;75635.31;5311142;28;20028;-68
2023/10/19 09:29:01;;;;;;;6.90;2.47;;;;;;;-145.79;100.00;75616.25;5311391;28;20038;-67
2023/10/19 09:31:32;;;;;;;8.18;2.20;;;;;;;-145.79;100.00;75620.47;5313541;28;20482;-68
2023/10/19 09:34:05;;;;;;;7.25;2.67;;;;;;;-145.79;100.00;75609.88;5313807;28;20028;-69
2023/10/19 09:36:37;;;;;;;9.95;2.83;;;;;;;-145.79;100.00;75609.88;5312661;28;20057;-69
2023/10/19 09:39:12;;;;;;;9.40;2.88;;;;;;;-145.79;100.00;75612.00;5294847;28;20032;-67
2023/10/19 09:41:44;;;;;;;9.07;2.42;;;;;;;-145.79;100.00;75603.53;5314103;28;20471;-68
2023/10/19 09:44:21;;;;;;;7.00;3.05;;;;;;;-145.79;100.00;75601.41;5306821;28;20099;-69
2023/10/19 09:46:57;;;;;;;7.22;2.95;;;;;;;-145.79;100.00;75588.72;5314541;28;20028;-69
2023/10/19 09:49:29;;;;;;;12.15;3.47;;;;;;;-145.79;100.00;75597.19;5317226;28;20031;-70
2023/10/19 09:52:00;;;;;;;8.75;2.95;;;;;;;-145.79;100.00;75580.22;5300387;28;20337;-70
2023/10/19 09:54:47;;;;;;;13.05;3.60;;;;;;;-145.79;100.00;75578.13;5306394;28;20133;-70
2023/10/19 09:57:31;;;;;;;9.43;3.40;;;;;;;-145.79;100.00;75576.00;5301379;28;20015;-70
2023/10/19 10:00:11;;;;;;;6.82;2.78;;;;;;;-145.79;100.00;75567.53;5304402;28;20532;-70
2023/10/19 10:02:45;;;;;;;11.43;3.42;;;;;;;-145.79;100.00;75567.53;5300033;28;20074;-70
2023/10/19 10:05:44;;;;;;;10.52;2.88;;;;;;;-145.79;100.00;75559.03;5312913;28;20027;-68
2023/10/19 10:08:19;;;;;;;4.50;2.63;;;;;;;-145.79;100.00;75550.56;5314946;28;20038;-69
2023/10/19 10:10:51;;;;;;;8.35;3.10;;;;;;;-145.79;100.00;75554.81;5303618;28;20032;-69
2023/10/19 10:13:31;;;;;;;9.63;2.92;;;;;;;-145.79;100.00;75550.56;5310865;28;20031;-68
2023/10/19 10:16:04;;;;;;;6.28;2.45;;;;;;;-145.79;100.00;75539.97;5296006;28;20470;-67
2023/10/19 10:18:35;;;;;;;8.40;3.05;;;;;;;-145.79;100.00;75537.84;5290004;28;20497;-67
2023/10/19 10:21:34;;;;;;;7.40;2.20;;;;;;;-145.79;100.00;75537.84;5303970;28;20114;-68
2023/10/19 10:24:05;;;;;;;9.98;2.70;;;;;;;-145.79;100.00;75533.63;5306710;28;20490;-69
2023/10/19 10:27:00;;;;;;;8.90;2.88;;;;;;;-145.79;100.00;75539.97;5314822;28;20102;-69
2023/10/19 10:29:31;;;;;;;8.85;2.70;;;;;;;-145.79;100.00;75539.97;5309579;28;20024;-69
2023/10/19 10:32:05;;;;;;;7.75;2.50;;;;;;;-145.79;100.00;75527.25;5309811;28;20033;-69
2023/10/19 10:34:36;;;;;;;9.20;4.25;;;;;;;-145.79;100.00;75529.38;5307879;28;20094;-69
2023/10/19 10:37:10;;;;;;;9.75;3.30;;;;;;;-145.79;100.00;75531.50;5312364;28;20063;-68
2023/10/19 10:39:44;;;;;;;7.30;2.53;;;;;;;-145.79;100.00;75527.25;5307959;28;20036;-69
2023/10/19 10:42:16;;;;;;;6.55;2.05;;;;;;;-145.79;100.00;75518.78;5315339;28;20428;-68
2023/10/19 10:44:52;;;;;;;8.07;2.85;;;;;;;-145.79;100.00;75520.91;5314560;28;20081;-68
2023/10/19 10:47:29;;;;;;;8.98;3.30;;;;;;;-145.79;100.00;75523.03;5310073;28;20099;-68
2023/10/19 10:50:01;;;;;;;6.88;2.40;;;;;;;-145.79;100.00;75525.16;5303573;28;20061;-68
2023/10/19 10:52:34;;;;;;;6.82;2.45;;;;;;;-145.79;100.00;75518.78;5303175;28;20032;-68
2023/10/19 10:55:11;;;;;;;10.35;3.50;;;;;;;-145.79;100.00;75520.91;5313514;28;20382;-68
2023/10/19 10:57:44;;;;;;;9.50;3.00;;;;;;;-145.79;100.00;75518.78;5311066;28;20051;-68
2023/10/19 11:00:16;;;;;;;6.13;2.30;;;;;;;-145.79;100.00;75516.66;5304125;28;20061;-69
2023/10/19 11:02:59;;;;;;;6.25;2.42;;;;;;;-145.79;100.00;75506.06;5318946;28;20545;-68
2023/10/19 11:05:33;;;;;;;9.13;2.55;;;;;;;-145.79;100.00;75506.06;5298221;28;20034;-69
2023/10/19 11:08:15;;;;;;;7.97;2.65;;;;;;;-145.79;100.00;75499.72;5311822;28;20102;-68
2023/10/19 11:10:47;;;;;;;7.65;3.60;;;;;;;-145.79;100.00;75493.38;5305476;28;20568;-68
2023/10/19 11:13:24;;;;;;;6.20;2.00;;;;;;;-145.79;100.00;75495.47;5315284;28;20051;-68
2023/10/19 11:15:58;;;;;;;6.72;3.00;;;;;;;-145.79;100.00;75487.00;5310690;28;20057;-68
2023/10/19 11:18:29;;;;;;;6.40;2.75;;;;;;;-145.79;100.00;75476.41;5314493;28;20056;-68
2023/10/19 11:21:05;;;;;;;5.57;2.20;;;;;;;-145.79;100.00;75470.06;5316109;28;20028;-69
2023/10/19 11:23:41;;;;;;;;;;;;;;;-145.79;100.00;75461.59;5289498;28;20494;-69
2023/10/19 11:26:16;;;;;;;5.53;2.53;;;;;;;-145.79;100.00;75455.22;5307742;28;20018;-68
2023/10/19 11:28:57;;;;;;;7.75;2.60;;;;;;;-145.79;100.00;75457.34;5303267;28;20085;-68
2023/10/19 11:31:37;;;;;;;6.75;2.92;;;;;;;-145.79;100.00;75448.88;5311752;28;20024;-68
2023/10/19 11:34:09;;;;;;;9.32;3.03;;;;;;;-145.79;100.00;75448.88;5311066;28;20448;-67
2023/10/19 11:36:41;;;;;;;9.40;2.85;;;;;;;-145.79;100.00;75444.63;5308196;28;20069;-67
2023/10/19 11:39:12;;;;;;;8.25;2.95;;;;;;;-145.79;100.00;75448.88;5304258;28;20024;-68
2023/10/19 11:41:43;;;;;;;4.38;2.25;;;;;;;-145.79;100.00;75446.75;5309924;28;20028;-68
2023/10/19 11:44:15;;;;;;;10.30;3.42;;;;;;;-145.79;100.00;75431.94;5314822;28;20024;-69
2023/10/19 11:46:46;;;;;;;8.38;2.70;;;;;;;-145.79;100.00;75436.16;5313717;28;20092;-69
2023/10/19 11:49:17;;;;;;;11.35;2.95;;;;;;;-145.79;100.00;75438.28;5311492;28;20106;-69
2023/10/19 11:51:49;;;;;;;11.43;3.70;;;;;;;-145.79;100.00;75436.16;5311902;28;20130;-69
2023/10/19 11:54:20;;;;;;;9.00;3.42;;;;;;;-145.79;100.00;75440.41;5315473;28;20027;-69
2023/10/19 11:56:53;;;;;;;7.25;2.88;;;;;;;-145.79;100.00;75444.63;5310212;28;20110;-68
2023/10/19 11:59:24;;;;;;;10.15;3.83;;;;;;;-145.79;100.00;75438.28;5294335;28;20024;-70
2023/10/19 12:01:55;;;;;;;10.63;3.42;;;;;;;-145.79;100.00;75446.75;5299285;28;20070;-68
2023/10/19 12:04:26;;;;;;;8.88;2.72;;;;;;;-145.79;100.00;75453.09;5315928;28;20024;-69
2023/10/19 12:06:58;;;;;;;10.10;3.65;;;;;;;-145.79;100.00;75446.75;5310505;28;20032;-69
2023/10/19 12:09:30;;;;;;;8.32;3.20;;;;;;;-145.79;100.00;75448.88;5316939;28;20367;-69
2023/10/19 12:12:03;;;;;;;12.98;3.58;;;;;;;-145.79;100.00;75444.63;5318883;28;20103;-69
2023/10/19 12:14:36;;;;;;;13.82;5.22;;;;;;;-145.79;100.00;75444.63;5308490;28;20028;-68
2023/10/19 12:17:07;;;;;;;11.68;4.63;;;;;;;-145.79;100.00;75442.53;5313946;28;20513;-69
2023/10/19 12:19:39;;;;;;;10.48;2.97;;;;;;;-145.79;100.00;75436.16;5303978;28;20036;-68
2023/10/19 12:22:13;;;;;;;7.05;3.22;;;;;;;-145.79;100.00;75438.28;5311810;28;20123;-68
2023/10/19 12:24:44;;;;;;;6.90;2.83;;;;;;;-145.79;100.00;75436.16;5318425;28;20028;-68
2023/10/19 12:27:15;;;;;;;9.20;4.07;;;;;;;-145.79;100.00;75434.03;5302613;28;20023;-68
2023/10/19 12:29:46;;;;;;;9.00;2.78;;;;;;;-145.79;100.00;75442.53;5310472;28;20027;-69
2023/10/19 12:32:18;;;;;;;8.73;3.05;;;;;;;-145.79;100.00;75440.41;5306933;28;20021;-68
2023/10/19 12:34:53;;;;;;;7.35;2.80;;;;;;;-145.79;100.00;75436.16;5309596;28;20016;-68
2023/10/19 12:37:24;;;;;;;9.57;3.07;;;;;;;-145.79;100.00;75436.16;5315058;28;20023;-68
2023/10/19 12:39:56;;;;;;;8.00;3.03;;;;;;;-145.79;100.00;75440.41;5305471;28;20301;-69
2023/10/19 12:42:27;;;;;;;10.98;3.10;;;;;;;-145.79;100.00;75444.63;5313358;28;20024;-68
2023/10/19 12:44:59;;;;;;;8.40;3.00;;;;;;;-145.79;100.00;75442.53;5316318;28;20023;-68
2023/10/19 12:47:30;;;;;;;20.45;13.75;;;;;;;-145.79;100.00;75438.28;5313401;28;20051;-69
2023/10/19 12:50:03;;;;;;;10.80;3.63;;;;;;;-145.79;100.00;75436.16;5298418;28;20026;-69
2023/10/19 12:52:37;;;;;;;9.52;4.07;;;;;;;-145.79;100.00;75427.69;5289330;28;20073;-68
2023/10/19 12:55:09;;;;;;;11.05;3.65;;;;;;;-145.79;100.00;75419.22;5291592;28;20028;-68
2023/10/19 12:57:40;;;;;;;12.23;3.72;;;;;;;-145.79;100.00;75421.34;5310553;28;20111;-69
2023/10/19 13:00:25;;;;;;;9.38;4.43;;;;;;;-145.79;100.00;75414.97;5310344;28;20023;-69
2023/10/19 13:02:59;;;;;;;12.43;7.73;;;;;;;-145.79;100.00;75414.97;5309374;28;20032;-69
2023/10/19 13:05:35;;;;;;;13.13;6.57;;;;;;;-145.79;100.00;75406.50;5311856;28;20310;-70
2023/10/19 13:08:14;;;;;;;10.43;3.90;;;;;;;-145.79;100.00;75410.75;5317787;28;20027;-70
2023/10/19 13:10:48;;;;;;;9.68;3.95;;;;;;;-145.79;100.00;75410.75;5314255;28;20506;-70
2023/10/19 13:13:23;;;;;;;9.13;3.85;;;;;;;-145.79;100.00;75406.50;5308835;28;20155;-70
2023/10/19 13:15:55;;;;;;;7.88;3.22;;;;;;;-145.79;100.00;75404.38;5310976;28;20023;-69
2023/10/19 13:18:29;;;;;;;11.10;3.70;;;;;;;-145.79;100.00;75410.75;5300215;28;20355;-70
2023/10/19 13:21:11;;;;;;;8.73;3.58;;;;;;;-145.79;100.00;75404.38;5303996;28;20044;-69
2023/10/19 13:23:44;;;;;;;10.07;3.60;;;;;;;-145.79;100.00;75410.75;5303508;28;20051;-69
2023/10/19 13:28:47;;;;;;;7.43;3.35;;;;;;;-145.79;100.00;75404.38;5303696;28;20040;-68
2023/10/19 13:31:19;;;;;;;11.00;4.13;;;;;;;-145.79;100.00;75406.50;5312323;28;20055;-67
2023/10/19 13:33:50;;;;;;;10.20;3.80;;;;;;;-145.79;100.00;75412.84;5311312;28;20030;-68
2023/10/19 13:36:22;;;;;;;9.40;4.10;;;;;;;-145.79;100.00;75402.25;5314951;28;20027;-67
2023/10/19 13:38:54;;;;;;;8.77;4.13;;;;;;;-145.79;100.00;75412.84;5311899;28;20548;-70
2023/10/19 13:41:25;;;;;;;9.75;3.63;;;;;;;-145.79;100.00;75406.50;5297319;28;20376;-70
2023/10/19 13:43:57;;;;;;;8.23;3.92;;;;;;;-145.79;100.00;75406.50;5316959;28;20028;-70
2023/10/19 13:46:29;;;;;;;13.70;4.35;;;;;;;-145.79;100.00;75414.97;5317720;28;20027;-71
2023/10/19 13:49:03;;;;;;;8.93;3.40;;;;;;;-145.79;100.00;75414.97;5313892;28;20024;-69
2023/10/19 13:51:34;;;;;;;9.40;3.70;;;;;;;-145.79;100.00;75419.22;5312315;28;20063;-72
2023/10/19 13:54:06;;;;;;;10.70;3.50;;;;;;;-145.79;100.00;75419.22;5320720;28;20111;-71
2023/10/19 13:56:37;;;;;;;11.70;4.00;;;;;;;-145.79;100.00;75410.75;5295910;28;20028;-71
2023/10/19 13:59:10;;;;;;;8.50;3.58;;;;;;;-145.79;100.00;75398.03;5300643;28;20030;-71
2023/10/19 14:01:42;;;;;;;7.68;3.50;;;;;;;-145.79;100.00;75398.03;5305965;28;20024;-71
2023/10/19 14:04:14;;;;;;;13.63;3.75;;;;;;;-145.79;100.00;75393.78;5303509;28;20028;-71
2023/10/19 14:06:49;;;;;;;7.97;3.55;;;;;;;-145.79;100.00;75393.78;5312864;28;20031;-70
2023/10/19 14:09:23;;;;;;;7.45;3.03;;;;;;;-145.79;100.00;75385.31;5311434;28;20023;-71
2023/10/19 14:11:54;;;;;;;7.28;3.03;;;;;;;-145.79;100.00;75383.19;5305086;28;20483;-72
2023/10/19 14:14:26;;;;;;;7.25;3.38;;;;;;;-145.79;100.00;75372.59;5309119;28;20031;-71
2023/10/19 14:16:58;;;;;;;6.57;2.50;;;;;;;-145.79;100.00;75370.50;5311438;28;20485;-71
2023/10/19 14:19:29;;;;;;;7.43;2.60;;;;;;;-145.79;100.00;75364.13;5311504;28;20027;-71
2023/10/19 14:22:02;;;;;;;9.73;3.83;;;;;;;-145.79;100.00;75353.53;5312644;28;20115;-69
2023/10/19 14:24:33;;;;;;;9.65;4.28;;;;;;;-145.79;100.00;75351.41;5304082;28;20493;-70
2023/10/19 14:27:05;;;;;;;7.00;3.67;;;;;;;-145.79;100.00;75351.41;5310243;28;20024;-70
2023/10/19 14:29:36;;;;;;;9.05;4.45;;;;;;;-145.79;100.00;75355.66;5311252;28;20045;-69
2023/10/19 14:32:07;;;;;;;8.25;4.68;;;;;;;-145.79;100.00;75347.19;5301588;28;20032;-70
2023/10/19 14:34:39;;;;;;;10.23;3.55;;;;;;;-145.79;100.00;75351.41;5312922;28;21306;-72
2023/10/19 14:37:10;;;;;;;5.75;3.20;;;;;;;-145.79;100.00;75338.72;5304184;28;20125;-72
2023/10/19 14:39:41;;;;;;;5.53;3.78;;;;;;;-145.79;100.00;75342.94;5301711;28;20035;-70
2023/10/19 14:42:13;;;;;;;12.40;4.55;;;;;;;-145.79;100.00;75330.22;5310691;28;20112;-69
2023/10/19 14:44:44;;;;;;;13.98;9.98;;;;;;;-145.79;100.00;75315.41;5314613;28;20032;-69
2023/10/19 14:47:15;;;;;;;12.63;4.50;;;;;;;-145.79;100.00;75296.34;5308315;28;20039;-70
2023/10/19 14:49:47;;;;;;;8.32;3.70;;;;;;;-145.79;100.00;75275.16;5303074;28;20051;-69
2023/10/19 14:52:21;;;;;;;8.65;3.78;;;;;;;-145.79;100.00;75264.56;5309646;28;20024;-70
2023/10/19 14:54:52;;;;;;;6.32;2.75;;;;;;;-145.79;100.00;75262.44;5305356;28;20104;-70
2023/10/19 14:57:24;;;;;;;7.22;3.40;;;;;;;-145.79;100.00;75275.16;5306703;28;20044;-69
2023/10/19 14:59:56;;;;;;;9.30;3.85;;;;;;;-145.79;100.00;75279.38;5313018;28;20028;-70
2023/10/19 15:02:27;;;;;;;6.13;3.70;;;;;;;-145.79;100.00;75279.38;5311404;28;20028;-70
2023/10/19 15:04:58;;;;;;;8.32;3.85;;;;;;;-145.79;100.00;75292.09;5311576;28;20492;-70
2023/10/19 15:07:30;;;;;;;7.47;4.50;;;;;;;-145.79;100.00;75292.09;5311067;28;20093;-70
2023/10/19 15:10:03;;;;;;;7.65;3.92;;;;;;;-145.79;100.00;75296.34;5316581;28;20020;-69
2023/10/19 15:12:34;;;;;;;6.82;4.15;;;;;;;-145.79;100.00;75287.88;5300038;28;20154;-70
2023/10/19 15:15:09;;;;;;;7.40;3.53;;;;;;;-145.79;100.00;75292.09;5304210;28;20099;-70
2023/10/19 15:17:41;;;;;;;7.55;4.43;;;;;;;-145.79;100.00;75292.09;5305292;28;20554;-70
2023/10/19 15:20:16;;;;;;;7.40;3.88;;;;;;;-145.79;100.00;75287.88;5305414;28;20036;-69
2023/10/19 15:22:48;;;;;;;9.05;3.90;;;;;;;-145.79;100.00;75281.50;5313146;28;20040;-68
2023/10/19 15:25:21;;;;;;;11.43;4.80;;;;;;;-145.79;100.00;75281.50;5306916;28;20138;-69
2023/10/19 15:27:53;;;;;;;8.63;4.50;;;;;;;-145.79;100.00;75275.16;5307063;28;20432;-69
2023/10/19 15:30:24;;;;;;;7.78;4.20;;;;;;;-145.79;100.00;75273.03;5303446;28;20071;-70
2023/10/19 15:32:56;;;;;;;8.13;4.10;;;;;;;-145.79;100.00;75270.91;5312730;28;20024;-69
2023/10/19 15:35:28;;;;;;;7.20;3.47;;;;;;;-145.79;100.00;75270.91;5312144;28;20078;-70
2023/10/19 15:37:59;;;;;;;8.30;3.90;;;;;;;-145.79;100.00;75275.16;5309109;28;20035;-70
2023/10/19 15:40:31;;;;;;;5.03;3.80;;;;;;;-145.79;100.00;75266.69;5299334;28;20041;-71
2023/10/19 15:43:02;;;;;;;6.22;4.20;;;;;;;-145.79;100.00;75266.69;5313362;28;20059;-70
2023/10/19 15:45:39;;;;;;;5.68;3.60;;;;;;;-145.79;100.00;75262.44;5319544;28;20035;-71
2023/10/19 15:48:13;;;;;;;6.88;4.20;;;;;;;-145.79;100.00;75258.19;5311823;28;20383;-70
2023/10/19 15:50:45;;;;;;;8.27;4.45;;;;;;;-145.79;100.00;75253.97;5311992;28;20034;-71
2023/10/19 15:53:17;;;;;;;6.65;3.47;;;;;;;-145.79;100.00;75266.69;5315233;28;20110;-71
2023/10/19 15:55:48;;;;;;;6.55;3.90;;;;;;;-145.79;100.00;75268.78;5313545;28;20039;-67
2023/10/19 15:58:21;;;;;;;6.32;4.10;;;;;;;-145.79;100.00;75270.91;5307785;28;20024;-67
2023/10/19 16:00:53;;;;;;;9.20;4.18;;;;;;;-145.79;100.00;75266.69;5318369;28;20035;-67
2023/10/19 16:03:24;;;;;;;8.00;3.38;;;;;;;-145.79;100.00;75268.78;5313234;28;20428;-67
2023/10/19 16:05:56;;;;;;;6.35;3.40;;;;;;;-145.79;100.00;75275.16;5313484;28;20107;-67
2023/10/19 16:08:27;;;;;;;5.93;3.78;;;;;;;-145.79;100.00;75281.50;5312301;28;20081;-67
2023/10/19 16:10:58;;;;;;;5.40;3.63;;;;;;;-145.79;100.00;75292.09;5301921;28;20035;-67
2023/10/19 16:13:30;;;;;;;5.45;3.70;;;;;;;-145.79;100.00;75304.81;5322351;28;20073;-68
2023/10/19 16:16:04;;;;;;;7.13;3.75;;;;;;;-145.79;100.00;75306.94;5315586;28;20066;-67
2023/10/19 16:18:35;;;;;;;6.78;3.78;;;;;;;-145.79;100.00;75309.03;5306531;28;20081;-67
2023/10/19 16:21:07;;;;;;;6.22;3.90;;;;;;;-145.79;100.00;75311.16;5315192;28;20028;-66
2023/10/19 16:23:38;;;;;;;4.80;3.97;;;;;;;-145.79;100.00;75311.16;5317496;28;20052;-66
2023/10/19 16:26:10;;;;;;;8.55;3.70;;;;;;;-145.79;100.00;75315.41;5320276;28;20085;-66
2023/10/19 16:28:41;;;;;;;7.72;3.70;;;;;;;-145.79;100.00;75313.28;5306964;28;20055;-66
2023/10/19 16:31:14;;;;;;;7.03;3.40;;;;;;;-145.79;100.00;75309.03;5314112;28;20030;-66
2023/10/19 16:33:46;;;;;;;13.45;11.65;;;;;;;-145.79;100.00;75321.75;5312321;28;20369;-66
2023/10/19 16:36:18;;;;;;;9.82;4.80;;;;;;;-145.79;100.00;75326.00;5320218;28;20027;-66
2023/10/19 16:38:50;;;;;;;9.45;4.20;;;;;;;-145.79;100.00;75326.00;5315030;28;20020;-66
2023/10/19 16:41:22;;;;;;;6.95;4.30;;;;;;;-145.79;100.00;75330.22;5308662;28;20028;-66
2023/10/19 16:43:53;;;;;;;6.35;3.90;;;;;;;-145.79;100.00;75330.22;5311061;28;20028;-66
2023/10/19 16:46:24;;;;;;;5.63;3.88;;;;;;;-145.79;100.00;75336.59;5311194;28;20082;-66
2023/10/19 16:48:56;;;;;;;7.85;4.25;;;;;;;-145.79;100.00;75336.59;5305711;28;20027;-66
2023/10/19 16:51:29;;;;;;;6.10;3.72;;;;;;;-145.79;100.00;75334.47;5305915;28;20081;-66
2023/10/19 16:54:00;;;;;;;7.30;3.78;;;;;;;-145.79;100.00;75332.34;5312534;28;20031;-66
